createdAt,value
2022-12-16T00:04:51.708Z,101027.88
2022-12-16T00:09:53.411Z,101040.19
2022-12-16T00:14:57.588Z,101045.56
2022-12-16T00:20:05.476Z,101049.75
2022-12-16T00:25:07.661Z,101044.59
2022-12-16T00:30:10.411Z,101045.44
2022-12-16T00:35:15.437Z,101048.94
2022-12-16T00:40:21.883Z,101048.81
2022-12-16T00:45:26.247Z,101049.53
2022-12-16T00:50:31.819Z,101052.81
2022-12-16T00:55:34.488Z,101057.97
2022-12-16T01:00:38.730Z,101061.44
2022-12-16T01:05:42.889Z,101056.91
2022-12-16T01:10:55.224Z,101062.66
2022-12-16T01:16:03.133Z,101072.25
2022-12-16T01:21:07.806Z,101068.66
2022-12-16T01:26:17.032Z,101090.53
2022-12-16T01:31:24.407Z,101086.13
2022-12-16T01:36:26.493Z,101103.50
2022-12-16T01:41:30.445Z,101105.25
2022-12-16T01:46:34.347Z,101118.31
2022-12-16T01:51:38.557Z,101117.38
2022-12-16T01:56:46.859Z,101125.06
2022-12-16T02:01:48.648Z,101134.59
2022-12-16T02:06:52.785Z,101128.50
2022-12-16T02:12:20.987Z,101126.94
2022-12-16T02:18:02.559Z,101128.09
2022-12-16T02:23:16.374Z,101128.31
2022-12-16T02:28:34.207Z,101132.53
2022-12-16T02:33:39.229Z,101134.44
2022-12-16T02:38:56.565Z,101134.53
2022-12-16T02:44:10.405Z,101142.41
2022-12-16T02:49:12.069Z,101140.09
2022-12-16T02:54:22.227Z,101142.00
2022-12-16T02:59:57.929Z,101149.88
2022-12-16T03:05:22.931Z,101144.84
2022-12-16T03:10:32.005Z,101156.31
2022-12-16T03:15:36.930Z,101162.31
2022-12-16T03:21:00.710Z,101167.78
2022-12-16T03:26:12.735Z,101188.09
2022-12-16T03:31:25.685Z,101188.16
2022-12-16T03:36:33.699Z,101176.91
2022-12-16T03:41:38.981Z,101191.75
2022-12-16T03:46:45.592Z,101193.75
2022-12-16T03:51:47.319Z,101194.81
2022-12-16T03:56:54.273Z,101186.09
2022-12-16T04:01:58.364Z,101203.44
2022-12-16T04:07:24.480Z,101202.69
2022-12-16T04:12:47.465Z,101216.50
2022-12-16T04:18:13.011Z,101218.81
2022-12-16T04:23:33.458Z,101227.44
2022-12-16T04:28:35.524Z,101225.94
2022-12-16T04:33:56.132Z,101234.47
2022-12-16T04:39:16.660Z,101230.91
2022-12-16T04:44:36.960Z,101240.03
2022-12-16T04:49:57.655Z,101241.09
2022-12-16T04:55:20.611Z,101248.97
2022-12-16T05:00:43.269Z,101255.81
2022-12-16T05:06:06.088Z,101266.13
2022-12-16T05:11:26.347Z,101270.44
2022-12-16T05:16:47.401Z,101269.69
2022-12-16T05:22:11.120Z,101268.66
2022-12-16T05:27:31.635Z,101276.53
2022-12-16T05:33:11.727Z,101277.28
2022-12-16T05:38:32.525Z,101292.22
2022-12-16T05:43:52.776Z,101298.31
2022-12-16T05:49:15.040Z,101308.00
2022-12-16T05:54:37.967Z,101310.72
2022-12-16T05:59:57.988Z,101324.63
2022-12-16T06:05:18.258Z,101326.31
2022-12-16T06:10:38.338Z,101320.22
2022-12-16T06:16:06.641Z,101331.59
2022-12-16T06:21:29.598Z,101334.97
2022-12-16T06:26:49.901Z,101343.91
2022-12-16T06:32:10.451Z,101347.53
2022-12-16T06:37:30.821Z,101353.66
2022-12-16T06:42:51.181Z,101354.69
2022-12-16T06:48:11.835Z,101362.59
2022-12-16T06:53:32.549Z,101372.16
2022-12-16T06:58:53.708Z,101388.03
2022-12-16T07:04:16.246Z,101378.34
2022-12-16T07:09:37.430Z,101391.63
2022-12-16T07:14:58.438Z,101405.63
2022-12-16T07:20:19.593Z,101413.28
2022-12-16T07:25:39.836Z,101430.69
2022-12-16T07:31:01.511Z,101437.41
2022-12-16T07:36:21.643Z,101438.16
2022-12-16T07:41:41.880Z,101455.75
2022-12-16T07:47:04.558Z,101458.06
2022-12-16T07:52:24.752Z,101473.56
2022-12-16T07:57:47.260Z,101487.38
2022-12-16T08:03:12.560Z,101486.53
2022-12-16T08:08:32.809Z,101502.19
2022-12-16T08:13:55.589Z,101512.84
2022-12-16T08:19:16.413Z,101529.38
2022-12-16T08:24:36.771Z,101525.88
2022-12-16T08:29:59.205Z,101536.22
2022-12-16T08:35:19.666Z,101546.66
2022-12-16T08:40:42.574Z,101558.78
2022-12-16T08:46:02.806Z,101559.53
2022-12-16T08:51:25.425Z,101567.97
2022-12-16T08:56:45.863Z,101570.38
2022-12-16T09:02:06.426Z,101578.84
2022-12-16T09:07:26.851Z,101587.22
2022-12-16T09:12:47.384Z,101593.09
2022-12-16T09:18:17.433Z,101595.56
2022-12-16T09:23:37.659Z,101595.19
2022-12-16T09:28:58.218Z,101597.13
2022-12-16T09:34:19.297Z,101610.28
2022-12-16T09:39:39.674Z,101619.25
2022-12-16T09:45:09.932Z,101619.72
2022-12-16T09:50:39.116Z,101620.72
2022-12-16T09:56:14.372Z,101630.44
2022-12-16T10:01:39.369Z,101637.81
2022-12-16T10:07:05.263Z,101644.13
2022-12-16T10:12:44.192Z,101644.97
2022-12-16T10:18:04.971Z,101648.34
2022-12-16T10:23:36.921Z,101647.41
2022-12-16T10:29:08.053Z,101652.47
2022-12-16T10:34:33.861Z,101663.09
2022-12-16T10:39:56.842Z,101665.00
2022-12-16T10:45:20.129Z,101665.22
2022-12-16T10:50:40.720Z,101670.13
2022-12-16T10:56:03.839Z,101664.09
2022-12-16T11:01:40.645Z,101663.34
2022-12-16T11:07:03.566Z,101675.59
2022-12-16T11:12:53.208Z,101674.09
2022-12-16T11:18:23.897Z,101690.75
2022-12-16T11:23:46.869Z,101689.91
2022-12-16T11:29:32.749Z,101692.25
2022-12-16T11:35:10.086Z,101693.75
2022-12-16T11:40:33.939Z,101697.56
2022-12-16T11:45:54.304Z,101692.47
2022-12-16T11:51:18.391Z,101698.44
2022-12-16T11:56:42.231Z,101693.75
2022-12-16T12:02:13.535Z,101693.38
2022-12-16T12:07:44.857Z,101690.75
2022-12-16T12:13:07.813Z,101693.28
2022-12-16T12:19:24.198Z,101699.63
2022-12-16T12:24:44.462Z,101709.38
2022-12-16T12:30:11.632Z,101701.47
2022-12-16T12:35:39.906Z,101711.91
2022-12-16T12:41:29.443Z,101708.44
2022-12-16T12:46:59.947Z,101718.22
2022-12-16T12:52:45.886Z,101707.59
2022-12-16T12:58:11.745Z,101709.19
2022-12-16T13:03:55.183Z,101725.34
2022-12-16T13:09:17.290Z,101727.63
2022-12-16T13:14:50.054Z,101727.63
2022-12-16T13:20:12.427Z,101729.88
2022-12-16T13:26:07.528Z,101734.84
2022-12-16T13:31:28.059Z,101741.63
2022-12-16T13:36:53.239Z,101747.59
2022-12-16T13:42:18.477Z,101747.69
2022-12-16T13:47:54.159Z,101751.78
2022-12-16T13:53:17.035Z,101765.41
2022-12-16T13:58:56.690Z,101773.22
2022-12-16T14:04:18.442Z,101791.22
2022-12-16T14:10:00.098Z,101788.69
2022-12-16T14:15:32.119Z,101796.00
2022-12-16T14:21:03.516Z,101817.38
2022-12-16T14:26:29.424Z,101829.88
2022-12-16T14:31:56.544Z,101838.53
2022-12-16T14:37:22.247Z,101834.19
2022-12-16T14:42:47.052Z,101836.22
2022-12-16T14:48:07.292Z,101838.91
2022-12-16T14:53:39.379Z,101839.22
2022-12-16T14:59:04.146Z,101853.41
2022-12-16T15:04:32.160Z,101850.13
2022-12-16T15:10:02.249Z,101854.00
2022-12-16T15:15:25.723Z,101858.69
2022-12-16T15:20:47.364Z,101861.91
2022-12-16T15:26:11.150Z,101868.78
2022-12-16T15:31:46.327Z,101866.59
2022-12-16T15:37:09.679Z,101861.66
2022-12-16T15:42:41.448Z,101871.78
2022-12-16T15:48:09.221Z,101889.00
2022-12-16T15:53:55.050Z,101897.59
2022-12-16T15:59:42.232Z,101903.16
2022-12-16T16:05:02.606Z,101913.66
2022-12-16T16:10:56.400Z,101925.38
2022-12-16T16:16:19.134Z,101930.06
2022-12-16T16:21:41.495Z,101936.44
2022-12-16T16:27:04.395Z,101942.09
2022-12-16T16:32:27.727Z,101944.41
2022-12-16T16:37:48.296Z,101952.03
2022-12-16T16:43:08.519Z,101949.31
2022-12-16T16:48:34.362Z,101959.75
2022-12-16T16:53:56.998Z,101959.75
2022-12-16T16:59:18.225Z,101964.22
2022-12-16T17:04:44.929Z,101960.75
2022-12-16T17:10:05.407Z,101961.06
2022-12-16T17:15:37.887Z,101969.38
2022-12-16T17:21:01.239Z,101972.91
2022-12-16T17:26:24.249Z,101968.44
2022-12-16T17:31:46.959Z,101969.66
2022-12-16T17:37:08.269Z,101974.03
2022-12-16T17:42:29.299Z,101978.16
2022-12-16T17:47:55.242Z,101987.56
2022-12-16T17:53:16.883Z,101999.13
2022-12-16T17:58:37.801Z,101997.97
2022-12-16T18:03:58.181Z,102014.59
2022-12-16T18:09:20.972Z,102016.03
2022-12-16T18:14:41.426Z,102020.28
2022-12-16T18:20:01.931Z,102024.03
2022-12-16T18:25:24.760Z,102029.28
2022-12-16T18:30:44.796Z,102033.03
2022-12-16T18:36:07.678Z,102037.34
2022-12-16T18:41:37.044Z,102041.09
2022-12-16T18:46:57.306Z,102041.13
2022-12-16T18:52:18.550Z,102046.56
2022-12-16T18:57:42.578Z,102045.56
2022-12-16T19:03:02.628Z,102056.19
2022-12-16T19:08:23.285Z,102056.28
2022-12-16T19:13:45.471Z,102070.41
2022-12-16T19:19:16.376Z,102071.41
2022-12-16T19:24:39.866Z,102078.59
2022-12-16T19:30:00.296Z,102084.91
2022-12-16T19:35:20.599Z,102087.09
2022-12-16T19:40:41.747Z,102094.28
2022-12-16T19:46:02.407Z,102098.47
2022-12-16T19:51:25.469Z,102112.22
2022-12-16T19:56:45.896Z,102125.97
2022-12-16T20:02:08.633Z,102115.56
2022-12-16T20:07:34.911Z,102117.19
2022-12-16T20:12:56.195Z,102130.31
2022-12-16T20:18:22.980Z,102132.22
2022-12-16T20:23:45.991Z,102141.44
2022-12-16T20:29:06.819Z,102142.50
2022-12-16T20:34:27.675Z,102141.00
2022-12-16T20:39:56.880Z,102139.38
2022-12-16T20:45:19.970Z,102150.22
2022-12-16T20:50:40.912Z,102151.56
2022-12-16T20:56:01.260Z,102153.47
2022-12-16T21:01:24.593Z,102152.69
2022-12-16T21:06:45.084Z,102152.56
2022-12-16T21:12:08.297Z,102155.09
2022-12-16T21:17:31.751Z,102158.72
2022-12-16T21:22:52.074Z,102152.88
2022-12-16T21:28:24.889Z,102165.25
2022-12-16T21:33:45.638Z,102179.91
2022-12-16T21:39:07.159Z,102180.09
2022-12-16T21:44:27.410Z,102187.59
2022-12-16T21:49:50.159Z,102183.31
2022-12-16T21:55:10.386Z,102174.47
2022-12-16T22:00:33.786Z,102186.72
2022-12-16T22:05:54.193Z,102190.22
2022-12-16T22:11:16.124Z,102194.47
2022-12-16T22:16:38.506Z,102206.66
2022-12-16T22:21:58.451Z,102201.81
2022-12-16T22:27:18.888Z,102208.44
2022-12-16T22:32:41.714Z,102211.41
2022-12-16T22:38:02.090Z,102213.59
2022-12-16T22:43:23.678Z,102209.53
2022-12-16T22:48:44.005Z,102217.25
2022-12-16T22:54:07.443Z,102225.94
2022-12-16T22:59:27.797Z,102227.03
2022-12-16T23:04:48.125Z,102220.72
2022-12-16T23:10:08.548Z,102226.81
2022-12-16T23:15:32.217Z,102227.63
2022-12-16T23:20:52.627Z,102230.03
2022-12-16T23:26:20.831Z,102240.19
2022-12-16T23:31:41.258Z,102230.50
2022-12-16T23:37:01.787Z,102219.03
2022-12-16T23:42:23.574Z,102235.69
2022-12-16T23:47:43.880Z,102231.44
2022-12-16T23:53:04.000Z,102245.56
2022-12-16T23:58:26.511Z,102248.06
